sensor_id;sensor_type;location;lat;lon;timestamp;P1;durP1;ratioP1;P2;durP2;ratioP2
22939;SDS011;11636;52.086;5.090;2022-12-07T00:04:25;7.88;;;3.47;;
22939;SDS011;11636;52.086;5.090;2022-12-07T00:06:52;8.80;;;3.17;;
22939;SDS011;11636;52.086;5.090;2022-12-07T00:09:29;8.10;;;3.50;;
22939;SDS011;11636;52.086;5.090;2022-12-07T00:12:24;6.57;;;2.97;;
22939;SDS011;11636;52.086;5.090;2022-12-07T00:15:19;8.00;;;2.72;;
22939;SDS011;11636;52.086;5.090;2022-12-07T00:17:59;5.47;;;2.67;;
22939;SDS011;11636;52.086;5.090;2022-12-07T00:20:33;6.95;;;3.00;;
22939;SDS011;11636;52.086;5.090;2022-12-07T00:23:10;6.70;;;2.40;;
22939;SDS011;11636;52.086;5.090;2022-12-07T00:29:34;9.68;;;2.95;;
22939;SDS011;11636;52.086;5.090;2022-12-07T00:32:24;6.35;;;2.35;;
22939;SDS011;11636;52.086;5.090;2022-12-07T00:35:00;4.88;;;2.10;;
22939;SDS011;11636;52.086;5.090;2022-12-07T00:37:56;4.65;;;2.00;;
22939;SDS011;11636;52.086;5.090;2022-12-07T00:40:53;4.72;;;1.88;;
22939;SDS011;11636;52.086;5.090;2022-12-07T00:44:11;4.32;;;2.22;;
22939;SDS011;11636;52.086;5.090;2022-12-07T00:47:06;5.53;;;2.20;;
22939;SDS011;11636;52.086;5.090;2022-12-07T00:49:34;9.63;;;3.00;;
22939;SDS011;11636;52.086;5.090;2022-12-07T00:52:34;9.07;;;3.15;;
22939;SDS011;11636;52.086;5.090;2022-12-07T00:55:32;8.40;;;3.40;;
22939;SDS011;11636;52.086;5.090;2022-12-07T00:58:49;10.05;;;3.33;;
22939;SDS011;11636;52.086;5.090;2022-12-07T01:01:45;8.15;;;3.03;;
22939;SDS011;11636;52.086;5.090;2022-12-07T01:10:48;9.45;;;2.85;;
22939;SDS011;11636;52.086;5.090;2022-12-07T01:13:43;7.32;;;2.70;;
22939;SDS011;11636;52.086;5.090;2022-12-07T01:19:33;10.45;;;3.35;;
22939;SDS011;11636;52.086;5.090;2022-12-07T01:22:08;10.30;;;3.13;;
22939;SDS011;11636;52.086;5.090;2022-12-07T01:24:50;7.07;;;3.00;;
22939;SDS011;11636;52.086;5.090;2022-12-07T01:34:02;6.10;;;2.70;;
22939;SDS011;11636;52.086;5.090;2022-12-07T01:39:50;5.75;;;2.55;;
22939;SDS011;11636;52.086;5.090;2022-12-07T01:42:43;7.70;;;2.45;;
22939;SDS011;11636;52.086;5.090;2022-12-07T01:45:38;5.38;;;2.47;;
22939;SDS011;11636;52.086;5.090;2022-12-07T01:48:27;3.78;;;2.00;;
22939;SDS011;11636;52.086;5.090;2022-12-07T01:51:29;6.60;;;2.63;;
22939;SDS011;11636;52.086;5.090;2022-12-07T01:54:02;10.02;;;2.90;;
22939;SDS011;11636;52.086;5.090;2022-12-07T01:56:32;9.27;;;2.90;;
22939;SDS011;11636;52.086;5.090;2022-12-07T02:02:30;8.35;;;2.72;;
22939;SDS011;11636;52.086;5.090;2022-12-07T02:05:15;10.52;;;2.70;;
22939;SDS011;11636;52.086;5.090;2022-12-07T02:08:07;9.02;;;2.72;;
22939;SDS011;11636;52.086;5.090;2022-12-07T02:10:51;13.13;;;2.40;;
22939;SDS011;11636;52.086;5.090;2022-12-07T02:13:22;8.30;;;2.10;;
22939;SDS011;11636;52.086;5.090;2022-12-07T02:29:05;4.55;;;1.33;;
22939;SDS011;11636;52.086;5.090;2022-12-07T02:32:05;4.28;;;1.23;;
22939;SDS011;11636;52.086;5.090;2022-12-07T02:41:35;4.30;;;1.20;;
22939;SDS011;11636;52.086;5.090;2022-12-07T02:44:28;4.55;;;0.95;;
22939;SDS011;11636;52.086;5.090;2022-12-07T02:47:28;3.17;;;1.15;;
22939;SDS011;11636;52.086;5.090;2022-12-07T02:50:20;2.97;;;1.15;;
22939;SDS011;11636;52.086;5.090;2022-12-07T02:52:57;1.95;;;0.70;;
22939;SDS011;11636;52.086;5.090;2022-12-07T02:55:43;3.53;;;0.95;;
22939;SDS011;11636;52.086;5.090;2022-12-07T03:11:24;2.97;;;1.15;;
22939;SDS011;11636;52.086;5.090;2022-12-07T03:14:59;3.20;;;0.63;;
22939;SDS011;11636;52.086;5.090;2022-12-07T03:17:58;3.10;;;0.98;;
22939;SDS011;11636;52.086;5.090;2022-12-07T03:20:50;2.95;;;0.95;;
22939;SDS011;11636;52.086;5.090;2022-12-07T03:23:51;2.92;;;0.90;;
22939;SDS011;11636;52.086;5.090;2022-12-07T03:33:29;2.45;;;0.70;;
22939;SDS011;11636;52.086;5.090;2022-12-07T03:36:55;2.45;;;0.65;;
22939;SDS011;11636;52.086;5.090;2022-12-07T03:42:37;3.72;;;0.88;;
22939;SDS011;11636;52.086;5.090;2022-12-07T03:45:24;2.78;;;0.90;;
22939;SDS011;11636;52.086;5.090;2022-12-07T03:48:40;2.55;;;0.70;;
22939;SDS011;11636;52.086;5.090;2022-12-07T03:58:12;3.17;;;0.80;;
22939;SDS011;11636;52.086;5.090;2022-12-07T04:01:22;2.00;;;0.60;;
22939;SDS011;11636;52.086;5.090;2022-12-07T04:07:18;3.88;;;0.98;;
22939;SDS011;11636;52.086;5.090;2022-12-07T04:13:34;3.00;;;0.93;;
22939;SDS011;11636;52.086;5.090;2022-12-07T04:16:53;4.18;;;1.00;;
22939;SDS011;11636;52.086;5.090;2022-12-07T04:19:56;3.38;;;0.82;;
22939;SDS011;11636;52.086;5.090;2022-12-07T04:22:31;3.08;;;0.80;;
22939;SDS011;11636;52.086;5.090;2022-12-07T04:25:07;2.60;;;0.60;;
22939;SDS011;11636;52.086;5.090;2022-12-07T04:28:04;2.40;;;0.68;;
22939;SDS011;11636;52.086;5.090;2022-12-07T04:30:38;1.42;;;0.47;;
22939;SDS011;11636;52.086;5.090;2022-12-07T04:33:05;3.60;;;0.75;;
22939;SDS011;11636;52.086;5.090;2022-12-07T04:35:42;2.13;;;0.60;;
22939;SDS011;11636;52.086;5.090;2022-12-07T04:38:54;2.20;;;0.60;;
22939;SDS011;11636;52.086;5.090;2022-12-07T04:41:43;3.58;;;0.93;;
22939;SDS011;11636;52.086;5.090;2022-12-07T04:44:27;1.85;;;0.60;;
22939;SDS011;11636;52.086;5.090;2022-12-07T04:47:22;2.85;;;0.82;;
22939;SDS011;11636;52.086;5.090;2022-12-07T04:49:49;2.63;;;0.75;;
22939;SDS011;11636;52.086;5.090;2022-12-07T04:52:43;2.08;;;0.70;;
22939;SDS011;11636;52.086;5.090;2022-12-07T04:55:33;2.22;;;0.90;;
22939;SDS011;11636;52.086;5.090;2022-12-07T04:58:36;2.35;;;0.80;;
22939;SDS011;11636;52.086;5.090;2022-12-07T05:01:03;2.28;;;0.80;;
22939;SDS011;11636;52.086;5.090;2022-12-07T05:03:55;3.38;;;1.00;;
22939;SDS011;11636;52.086;5.090;2022-12-07T05:06:28;2.10;;;0.80;;
22939;SDS011;11636;52.086;5.090;2022-12-07T05:09:02;1.77;;;0.60;;
22939;SDS011;11636;52.086;5.090;2022-12-07T05:11:35;3.38;;;0.80;;
22939;SDS011;11636;52.086;5.090;2022-12-07T05:14:18;2.47;;;0.77;;
22939;SDS011;11636;52.086;5.090;2022-12-07T05:17:28;2.92;;;1.10;;
22939;SDS011;11636;52.086;5.090;2022-12-07T05:20:31;4.10;;;1.08;;
22939;SDS011;11636;52.086;5.090;2022-12-07T05:23:28;2.28;;;0.80;;
22939;SDS011;11636;52.086;5.090;2022-12-07T05:25:58;3.72;;;1.00;;
22939;SDS011;11636;52.086;5.090;2022-12-07T05:28:42;3.15;;;1.08;;
22939;SDS011;11636;52.086;5.090;2022-12-07T05:31:12;4.40;;;1.17;;
22939;SDS011;11636;52.086;5.090;2022-12-07T05:34:09;4.28;;;1.17;;
22939;SDS011;11636;52.086;5.090;2022-12-07T05:36:57;5.32;;;1.20;;
22939;SDS011;11636;52.086;5.090;2022-12-07T05:39:53;3.13;;;1.10;;
22939;SDS011;11636;52.086;5.090;2022-12-07T05:42:47;3.08;;;0.70;;
22939;SDS011;11636;52.086;5.090;2022-12-07T05:45:30;3.03;;;1.00;;
22939;SDS011;11636;52.086;5.090;2022-12-07T05:48:08;2.25;;;0.88;;
22939;SDS011;11636;52.086;5.090;2022-12-07T05:50:52;2.80;;;0.93;;
22939;SDS011;11636;52.086;5.090;2022-12-07T05:53:31;2.45;;;0.98;;
22939;SDS011;11636;52.086;5.090;2022-12-07T05:56:18;2.70;;;0.88;;
22939;SDS011;11636;52.086;5.090;2022-12-07T05:58:51;3.83;;;1.27;;
22939;SDS011;11636;52.086;5.090;2022-12-07T06:02:11;9.23;;;1.70;;
22939;SDS011;11636;52.086;5.090;2022-12-07T06:05:06;7.72;;;1.98;;
22939;SDS011;11636;52.086;5.090;2022-12-07T06:08:04;4.82;;;1.33;;
22939;SDS011;11636;52.086;5.090;2022-12-07T06:10:31;6.50;;;1.50;;
22939;SDS011;11636;52.086;5.090;2022-12-07T06:13:23;5.10;;;1.58;;
22939;SDS011;11636;52.086;5.090;2022-12-07T06:15:50;3.33;;;1.00;;
22939;SDS011;11636;52.086;5.090;2022-12-07T06:18:31;5.03;;;1.40;;
22939;SDS011;11636;52.086;5.090;2022-12-07T06:21:21;4.05;;;0.98;;
22939;SDS011;11636;52.086;5.090;2022-12-07T06:24:31;3.45;;;0.82;;
22939;SDS011;11636;52.086;5.090;2022-12-07T06:27:21;3.00;;;0.98;;
22939;SDS011;11636;52.086;5.090;2022-12-07T06:29:59;6.68;;;0.98;;
22939;SDS011;11636;52.086;5.090;2022-12-07T06:32:35;6.03;;;1.05;;
22939;SDS011;11636;52.086;5.090;2022-12-07T06:35:31;3.20;;;0.95;;
22939;SDS011;11636;52.086;5.090;2022-12-07T06:38:29;4.30;;;1.02;;
22939;SDS011;11636;52.086;5.090;2022-12-07T06:44:18;5.18;;;1.00;;
22939;SDS011;11636;52.086;5.090;2022-12-07T06:46:45;4.30;;;1.10;;
22939;SDS011;11636;52.086;5.090;2022-12-07T06:49:50;2.47;;;0.80;;
22939;SDS011;11636;52.086;5.090;2022-12-07T06:52:31;3.92;;;1.10;;
22939;SDS011;11636;52.086;5.090;2022-12-07T06:55:08;3.60;;;0.80;;
22939;SDS011;11636;52.086;5.090;2022-12-07T06:58:05;2.85;;;0.75;;
22939;SDS011;11636;52.086;5.090;2022-12-07T07:01:25;2.75;;;0.70;;
22939;SDS011;11636;52.086;5.090;2022-12-07T07:04:29;3.97;;;1.10;;
22939;SDS011;11636;52.086;5.090;2022-12-07T07:06:59;2.10;;;0.70;;
22939;SDS011;11636;52.086;5.090;2022-12-07T07:09:56;1.45;;;0.60;;
22939;SDS011;11636;52.086;5.090;2022-12-07T07:16:09;3.50;;;1.13;;
22939;SDS011;11636;52.086;5.090;2022-12-07T07:18:56;5.25;;;1.73;;
22939;SDS011;11636;52.086;5.090;2022-12-07T07:21:49;4.13;;;1.30;;
22939;SDS011;11636;52.086;5.090;2022-12-07T07:24:40;5.10;;;1.33;;
22939;SDS011;11636;52.086;5.090;2022-12-07T07:27:25;4.55;;;1.45;;
22939;SDS011;11636;52.086;5.090;2022-12-07T07:33:26;5.35;;;1.35;;
22939;SDS011;11636;52.086;5.090;2022-12-07T07:36:30;6.30;;;1.98;;
22939;SDS011;11636;52.086;5.090;2022-12-07T07:39:05;5.35;;;1.75;;
22939;SDS011;11636;52.086;5.090;2022-12-07T07:41:59;4.43;;;1.60;;
22939;SDS011;11636;52.086;5.090;2022-12-07T07:45:00;3.88;;;1.80;;
22939;SDS011;11636;52.086;5.090;2022-12-07T07:47:27;7.00;;;1.45;;
22939;SDS011;11636;52.086;5.090;2022-12-07T07:53:16;3.75;;;1.58;;
22939;SDS011;11636;52.086;5.090;2022-12-07T07:59:08;3.50;;;1.40;;
22939;SDS011;11636;52.086;5.090;2022-12-07T08:02:09;6.22;;;1.60;;
22939;SDS011;11636;52.086;5.090;2022-12-07T08:05:20;6.85;;;1.85;;
22939;SDS011;11636;52.086;5.090;2022-12-07T08:08:08;4.82;;;1.50;;
22939;SDS011;11636;52.086;5.090;2022-12-07T08:10:45;4.72;;;1.63;;
22939;SDS011;11636;52.086;5.090;2022-12-07T08:13:31;3.03;;;1.45;;
22939;SDS011;11636;52.086;5.090;2022-12-07T08:15:58;5.22;;;1.83;;
22939;SDS011;11636;52.086;5.090;2022-12-07T08:18:37;5.13;;;1.65;;
22939;SDS011;11636;52.086;5.090;2022-12-07T08:21:06;5.53;;;1.40;;
22939;SDS011;11636;52.086;5.090;2022-12-07T08:23:36;3.38;;;1.55;;
22939;SDS011;11636;52.086;5.090;2022-12-07T08:26:11;4.88;;;1.48;;
22939;SDS011;11636;52.086;5.090;2022-12-07T08:28:40;6.15;;;1.95;;
22939;SDS011;11636;52.086;5.090;2022-12-07T08:31:09;8.07;;;1.92;;
22939;SDS011;11636;52.086;5.090;2022-12-07T08:33:48;11.48;;;2.05;;
22939;SDS011;11636;52.086;5.090;2022-12-07T08:36:22;5.35;;;1.50;;
22939;SDS011;11636;52.086;5.090;2022-12-07T08:38:49;4.53;;;1.50;;
22939;SDS011;11636;52.086;5.090;2022-12-07T08:41:36;8.10;;;2.25;;
22939;SDS011;11636;52.086;5.090;2022-12-07T08:44:10;5.13;;;1.70;;
22939;SDS011;11636;52.086;5.090;2022-12-07T08:46:41;6.28;;;1.50;;
22939;SDS011;11636;52.086;5.090;2022-12-07T08:49:20;7.22;;;1.55;;
22939;SDS011;11636;52.086;5.090;2022-12-07T08:51:51;5.72;;;1.63;;
22939;SDS011;11636;52.086;5.090;2022-12-07T08:54:25;10.23;;;1.90;;
22939;SDS011;11636;52.086;5.090;2022-12-07T08:56:52;6.28;;;1.90;;
22939;SDS011;11636;52.086;5.090;2022-12-07T08:59:25;5.97;;;1.75;;
22939;SDS011;11636;52.086;5.090;2022-12-07T09:01:59;4.97;;;1.80;;
22939;SDS011;11636;52.086;5.090;2022-12-07T09:04:26;5.68;;;1.42;;
22939;SDS011;11636;52.086;5.090;2022-12-07T09:06:54;8.07;;;1.92;;
22939;SDS011;11636;52.086;5.090;2022-12-07T09:09:28;4.88;;;1.60;;
22939;SDS011;11636;52.086;5.090;2022-12-07T09:11:55;5.05;;;1.50;;
22939;SDS011;11636;52.086;5.090;2022-12-07T09:14:22;6.70;;;1.50;;
22939;SDS011;11636;52.086;5.090;2022-12-07T09:17:04;7.63;;;1.60;;
22939;SDS011;11636;52.086;5.090;2022-12-07T09:19:36;4.30;;;1.20;;
22939;SDS011;11636;52.086;5.090;2022-12-07T09:22:12;3.35;;;1.33;;
22939;SDS011;11636;52.086;5.090;2022-12-07T09:24:46;4.18;;;1.25;;
22939;SDS011;11636;52.086;5.090;2022-12-07T09:27:13;5.85;;;1.52;;
22939;SDS011;11636;52.086;5.090;2022-12-07T09:29:40;6.15;;;1.50;;
22939;SDS011;11636;52.086;5.090;2022-12-07T09:32:13;5.32;;;1.50;;
22939;SDS011;11636;52.086;5.090;2022-12-07T09:34:40;5.93;;;1.67;;
22939;SDS011;11636;52.086;5.090;2022-12-07T09:37:12;7.60;;;2.22;;
22939;SDS011;11636;52.086;5.090;2022-12-07T09:39:45;8.98;;;2.20;;
22939;SDS011;11636;52.086;5.090;2022-12-07T09:45:21;7.45;;;1.85;;
22939;SDS011;11636;52.086;5.090;2022-12-07T09:47:50;6.20;;;1.70;;
22939;SDS011;11636;52.086;5.090;2022-12-07T09:50:25;5.75;;;2.00;;
22939;SDS011;11636;52.086;5.090;2022-12-07T09:52:54;7.15;;;1.75;;
22939;SDS011;11636;52.086;5.090;2022-12-07T09:55:37;7.93;;;2.17;;
22939;SDS011;11636;52.086;5.090;2022-12-07T09:58:29;8.75;;;1.92;;
22939;SDS011;11636;52.086;5.090;2022-12-07T10:01:11;10.05;;;2.13;;
22939;SDS011;11636;52.086;5.090;2022-12-07T10:06:19;8.70;;;1.87;;
22939;SDS011;11636;52.086;5.090;2022-12-07T10:08:46;5.25;;;1.67;;
22939;SDS011;11636;52.086;5.090;2022-12-07T10:11:21;7.25;;;2.08;;
22939;SDS011;11636;52.086;5.090;2022-12-07T10:13:49;6.72;;;1.90;;
22939;SDS011;11636;52.086;5.090;2022-12-07T10:19:20;6.55;;;1.55;;
22939;SDS011;11636;52.086;5.090;2022-12-07T10:21:59;8.85;;;2.10;;
22939;SDS011;11636;52.086;5.090;2022-12-07T10:24:39;6.13;;;1.58;;
22939;SDS011;11636;52.086;5.090;2022-12-07T10:27:17;5.38;;;1.70;;
22939;SDS011;11636;52.086;5.090;2022-12-07T10:29:58;5.22;;;1.23;;
22939;SDS011;11636;52.086;5.090;2022-12-07T10:37:50;3.22;;;0.80;;
22939;SDS011;11636;52.086;5.090;2022-12-07T10:43:04;6.72;;;1.60;;
22939;SDS011;11636;52.086;5.090;2022-12-07T10:51:09;6.25;;;1.80;;
22939;SDS011;11636;52.086;5.090;2022-12-07T11:05:36;6.63;;;1.35;;
22939;SDS011;11636;52.086;5.090;2022-12-07T11:08:29;6.15;;;1.25;;
22939;SDS011;11636;52.086;5.090;2022-12-07T11:11:01;7.28;;;1.27;;
22939;SDS011;11636;52.086;5.090;2022-12-07T11:19:43;5.72;;;1.30;;
22939;SDS011;11636;52.086;5.090;2022-12-07T11:22:23;3.83;;;0.90;;
22939;SDS011;11636;52.086;5.090;2022-12-07T11:30:57;4.78;;;1.10;;
22939;SDS011;11636;52.086;5.090;2022-12-07T11:42:05;5.32;;;1.25;;
22939;SDS011;11636;52.086;5.090;2022-12-07T11:50:42;5.03;;;1.15;;
22939;SDS011;11636;52.086;5.090;2022-12-07T12:04:19;8.07;;;1.55;;
22939;SDS011;11636;52.086;5.090;2022-12-07T12:06:55;5.65;;;1.40;;
22939;SDS011;11636;52.086;5.090;2022-12-07T12:09:59;5.22;;;1.50;;
22939;SDS011;11636;52.086;5.090;2022-12-07T12:21:14;4.97;;;1.00;;
22939;SDS011;11636;52.086;5.090;2022-12-07T12:23:50;3.67;;;1.00;;
22939;SDS011;11636;52.086;5.090;2022-12-07T12:26:33;2.70;;;0.90;;
22939;SDS011;11636;52.086;5.090;2022-12-07T12:29:04;5.57;;;1.45;;
22939;SDS011;11636;52.086;5.090;2022-12-07T12:31:41;5.38;;;1.10;;
22939;SDS011;11636;52.086;5.090;2022-12-07T12:34:30;7.38;;;1.70;;
22939;SDS011;11636;52.086;5.090;2022-12-07T12:42:54;7.85;;;1.20;;
22939;SDS011;11636;52.086;5.090;2022-12-07T12:45:25;9.13;;;1.50;;
22939;SDS011;11636;52.086;5.090;2022-12-07T12:48:00;5.47;;;0.70;;
22939;SDS011;11636;52.086;5.090;2022-12-07T12:54:05;5.07;;;1.42;;
22939;SDS011;11636;52.086;5.090;2022-12-07T12:56:42;7.03;;;1.40;;
22939;SDS011;11636;52.086;5.090;2022-12-07T12:59:57;6.65;;;1.48;;
22939;SDS011;11636;52.086;5.090;2022-12-07T13:15:44;5.38;;;1.30;;
22939;SDS011;11636;52.086;5.090;2022-12-07T13:23:36;4.57;;;0.88;;
22939;SDS011;11636;52.086;5.090;2022-12-07T13:29:13;4.78;;;1.20;;
22939;SDS011;11636;52.086;5.090;2022-12-07T13:31:47;6.30;;;1.27;;
22939;SDS011;11636;52.086;5.090;2022-12-07T13:34:32;8.23;;;2.13;;
22939;SDS011;11636;52.086;5.090;2022-12-07T13:37:28;6.07;;;0.93;;
22939;SDS011;11636;52.086;5.090;2022-12-07T13:40:19;4.13;;;1.08;;
22939;SDS011;11636;52.086;5.090;2022-12-07T13:42:58;7.20;;;1.20;;
22939;SDS011;11636;52.086;5.090;2022-12-07T13:45:57;4.20;;;1.05;;
22939;SDS011;11636;52.086;5.090;2022-12-07T13:48:49;6.00;;;1.00;;
22939;SDS011;11636;52.086;5.090;2022-12-07T13:51:24;4.50;;;0.60;;
22939;SDS011;11636;52.086;5.090;2022-12-07T13:53:59;4.18;;;0.90;;
22939;SDS011;11636;52.086;5.090;2022-12-07T13:56:34;3.63;;;0.77;;
22939;SDS011;11636;52.086;5.090;2022-12-07T13:59:02;5.03;;;0.80;;
22939;SDS011;11636;52.086;5.090;2022-12-07T14:01:38;3.00;;;0.73;;
22939;SDS011;11636;52.086;5.090;2022-12-07T14:04:19;3.20;;;0.60;;
22939;SDS011;11636;52.086;5.090;2022-12-07T14:07:19;3.47;;;0.73;;
22939;SDS011;11636;52.086;5.090;2022-12-07T14:12:36;4.30;;;0.70;;
22939;SDS011;11636;52.086;5.090;2022-12-07T14:15:23;4.45;;;0.90;;
22939;SDS011;11636;52.086;5.090;2022-12-07T14:18:01;4.88;;;0.82;;
22939;SDS011;11636;52.086;5.090;2022-12-07T14:20:38;3.45;;;0.80;;
22939;SDS011;11636;52.086;5.090;2022-12-07T14:23:26;4.35;;;0.70;;
22939;SDS011;11636;52.086;5.090;2022-12-07T14:25:53;2.30;;;0.95;;
22939;SDS011;11636;52.086;5.090;2022-12-07T14:28:37;3.40;;;0.80;;
22939;SDS011;11636;52.086;5.090;2022-12-07T14:31:14;2.10;;;0.68;;
22939;SDS011;11636;52.086;5.090;2022-12-07T14:33:50;4.82;;;1.08;;
22939;SDS011;11636;52.086;5.090;2022-12-07T14:36:23;3.40;;;1.10;;
22939;SDS011;11636;52.086;5.090;2022-12-07T14:38:56;5.38;;;1.60;;
22939;SDS011;11636;52.086;5.090;2022-12-07T14:41:26;5.75;;;1.25;;
22939;SDS011;11636;52.086;5.090;2022-12-07T14:44:18;3.83;;;1.13;;
22939;SDS011;11636;52.086;5.090;2022-12-07T14:49:43;7.28;;;1.83;;
22939;SDS011;11636;52.086;5.090;2022-12-07T14:52:24;6.20;;;1.13;;
22939;SDS011;11636;52.086;5.090;2022-12-07T14:55:27;3.78;;;1.05;;
22939;SDS011;11636;52.086;5.090;2022-12-07T14:58:03;6.18;;;1.85;;
22939;SDS011;11636;52.086;5.090;2022-12-07T15:00:37;6.78;;;1.58;;
22939;SDS011;11636;52.086;5.090;2022-12-07T15:03:04;5.45;;;1.20;;
22939;SDS011;11636;52.086;5.090;2022-12-07T15:05:38;3.88;;;1.50;;
22939;SDS011;11636;52.086;5.090;2022-12-07T15:08:05;4.35;;;1.40;;
22939;SDS011;11636;52.086;5.090;2022-12-07T15:10:39;5.65;;;1.63;;
22939;SDS011;11636;52.086;5.090;2022-12-07T15:13:17;5.75;;;1.90;;
22939;SDS011;11636;52.086;5.090;2022-12-07T15:16:13;3.90;;;1.30;;
22939;SDS011;11636;52.086;5.090;2022-12-07T15:18:46;4.88;;;1.42;;
22939;SDS011;11636;52.086;5.090;2022-12-07T15:21:40;5.00;;;1.20;;
22939;SDS011;11636;52.086;5.090;2022-12-07T15:24:14;2.75;;;1.05;;
22939;SDS011;11636;52.086;5.090;2022-12-07T15:26:41;5.05;;;1.27;;
22939;SDS011;11636;52.086;5.090;2022-12-07T15:29:15;7.97;;;1.70;;
22939;SDS011;11636;52.086;5.090;2022-12-07T15:31:50;5.13;;;1.38;;
22939;SDS011;11636;52.086;5.090;2022-12-07T15:34:25;5.05;;;2.00;;
22939;SDS011;11636;52.086;5.090;2022-12-07T15:37:04;9.80;;;3.00;;
22939;SDS011;11636;52.086;5.090;2022-12-07T15:39:39;9.40;;;3.20;;
22939;SDS011;11636;52.086;5.090;2022-12-07T15:42:06;8.40;;;2.20;;
22939;SDS011;11636;52.086;5.090;2022-12-07T15:44:39;6.65;;;1.60;;
22939;SDS011;11636;52.086;5.090;2022-12-07T15:47:33;4.32;;;1.50;;
22939;SDS011;11636;52.086;5.090;2022-12-07T15:50:32;5.93;;;1.42;;
22939;SDS011;11636;52.086;5.090;2022-12-07T15:53:05;3.95;;;1.23;;
22939;SDS011;11636;52.086;5.090;2022-12-07T15:55:32;4.53;;;1.40;;
22939;SDS011;11636;52.086;5.090;2022-12-07T15:58:07;4.60;;;1.08;;
22939;SDS011;11636;52.086;5.090;2022-12-07T16:00:41;4.90;;;1.20;;
22939;SDS011;11636;52.086;5.090;2022-12-07T16:03:15;4.18;;;1.40;;
22939;SDS011;11636;52.086;5.090;2022-12-07T16:05:48;4.22;;;1.20;;
22939;SDS011;11636;52.086;5.090;2022-12-07T16:08:15;2.67;;;1.10;;
22939;SDS011;11636;52.086;5.090;2022-12-07T16:10:49;4.05;;;1.02;;
22939;SDS011;11636;52.086;5.090;2022-12-07T16:13:16;3.47;;;1.33;;
22939;SDS011;11636;52.086;5.090;2022-12-07T16:15:51;3.75;;;1.50;;
22939;SDS011;11636;52.086;5.090;2022-12-07T16:18:18;3.15;;;1.08;;
22939;SDS011;11636;52.086;5.090;2022-12-07T16:20:51;5.35;;;1.63;;
22939;SDS011;11636;52.086;5.090;2022-12-07T16:23:18;3.63;;;1.50;;
22939;SDS011;11636;52.086;5.090;2022-12-07T16:25:45;3.25;;;1.23;;
22939;SDS011;11636;52.086;5.090;2022-12-07T16:28:19;3.55;;;1.38;;
22939;SDS011;11636;52.086;5.090;2022-12-07T16:30:46;3.03;;;1.13;;
22939;SDS011;11636;52.086;5.090;2022-12-07T16:33:19;3.05;;;1.40;;
22939;SDS011;11636;52.086;5.090;2022-12-07T16:35:46;5.95;;;1.50;;
22939;SDS011;11636;52.086;5.090;2022-12-07T16:38:19;3.40;;;1.20;;
22939;SDS011;11636;52.086;5.090;2022-12-07T16:40:46;5.35;;;1.73;;
22939;SDS011;11636;52.086;5.090;2022-12-07T16:43:20;9.40;;;3.38;;
22939;SDS011;11636;52.086;5.090;2022-12-07T16:45:54;6.53;;;2.78;;
22939;SDS011;11636;52.086;5.090;2022-12-07T16:48:28;4.82;;;1.70;;
22939;SDS011;11636;52.086;5.090;2022-12-07T16:50:55;4.70;;;1.90;;
22939;SDS011;11636;52.086;5.090;2022-12-07T16:53:23;5.13;;;2.20;;
22939;SDS011;11636;52.086;5.090;2022-12-07T16:55:57;4.88;;;1.88;;
22939;SDS011;11636;52.086;5.090;2022-12-07T16:58:30;5.15;;;2.50;;
22939;SDS011;11636;52.086;5.090;2022-12-07T17:00:57;5.30;;;2.30;;
22939;SDS011;11636;52.086;5.090;2022-12-07T17:03:34;5.07;;;2.10;;
22939;SDS011;11636;52.086;5.090;2022-12-07T17:06:02;6.22;;;2.25;;
22939;SDS011;11636;52.086;5.090;2022-12-07T17:08:36;3.22;;;1.50;;
22939;SDS011;11636;52.086;5.090;2022-12-07T17:11:02;3.80;;;1.60;;
22939;SDS011;11636;52.086;5.090;2022-12-07T17:14:04;4.15;;;1.60;;
22939;SDS011;11636;52.086;5.090;2022-12-07T17:17:00;4.35;;;1.60;;
22939;SDS011;11636;52.086;5.090;2022-12-07T17:19:27;5.82;;;1.70;;
22939;SDS011;11636;52.086;5.090;2022-12-07T17:22:10;4.43;;;1.65;;
22939;SDS011;11636;52.086;5.090;2022-12-07T17:24:45;4.00;;;1.70;;
22939;SDS011;11636;52.086;5.090;2022-12-07T17:27:12;5.07;;;1.70;;
22939;SDS011;11636;52.086;5.090;2022-12-07T17:29:39;4.00;;;1.67;;
22939;SDS011;11636;52.086;5.090;2022-12-07T17:32:13;3.80;;;1.83;;
22939;SDS011;11636;52.086;5.090;2022-12-07T17:34:40;3.95;;;1.95;;
22939;SDS011;11636;52.086;5.090;2022-12-07T17:37:18;8.10;;;6.47;;
22939;SDS011;11636;52.086;5.090;2022-12-07T17:39:52;9.82;;;5.63;;
22939;SDS011;11636;52.086;5.090;2022-12-07T17:42:24;6.50;;;3.63;;
22939;SDS011;11636;52.086;5.090;2022-12-07T17:45:22;5.68;;;2.53;;
22939;SDS011;11636;52.086;5.090;2022-12-07T17:47:49;5.07;;;2.38;;
22939;SDS011;11636;52.086;5.090;2022-12-07T17:50:23;5.65;;;2.67;;
22939;SDS011;11636;52.086;5.090;2022-12-07T17:53:10;3.75;;;2.15;;
22939;SDS011;11636;52.086;5.090;2022-12-07T17:55:44;4.00;;;2.25;;
22939;SDS011;11636;52.086;5.090;2022-12-07T17:58:31;4.03;;;1.85;;
22939;SDS011;11636;52.086;5.090;2022-12-07T18:01:07;5.28;;;2.22;;
22939;SDS011;11636;52.086;5.090;2022-12-07T18:03:36;7.55;;;2.13;;
22939;SDS011;11636;52.086;5.090;2022-12-07T18:06:03;5.80;;;2.42;;
22939;SDS011;11636;52.086;5.090;2022-12-07T18:08:37;6.25;;;2.70;;
22939;SDS011;11636;52.086;5.090;2022-12-07T18:11:04;6.43;;;3.08;;
22939;SDS011;11636;52.086;5.090;2022-12-07T18:13:32;5.38;;;3.10;;
22939;SDS011;11636;52.086;5.090;2022-12-07T18:16:10;4.85;;;2.83;;
22939;SDS011;11636;52.086;5.090;2022-12-07T18:18:39;4.90;;;2.47;;
22939;SDS011;11636;52.086;5.090;2022-12-07T18:21:22;4.47;;;2.28;;
22939;SDS011;11636;52.086;5.090;2022-12-07T18:23:52;4.85;;;2.65;;
22939;SDS011;11636;52.086;5.090;2022-12-07T18:26:27;6.85;;;3.03;;
22939;SDS011;11636;52.086;5.090;2022-12-07T18:28:55;6.13;;;2.45;;
22939;SDS011;11636;52.086;5.090;2022-12-07T18:31:25;6.90;;;2.65;;
22939;SDS011;11636;52.086;5.090;2022-12-07T18:34:05;9.30;;;3.60;;
22939;SDS011;11636;52.086;5.090;2022-12-07T18:36:40;6.70;;;3.70;;
22939;SDS011;11636;52.086;5.090;2022-12-07T18:39:15;9.38;;;4.38;;
22939;SDS011;11636;52.086;5.090;2022-12-07T18:41:59;8.18;;;4.32;;
22939;SDS011;11636;52.086;5.090;2022-12-07T18:44:26;8.25;;;4.55;;
22939;SDS011;11636;52.086;5.090;2022-12-07T18:46:56;12.27;;;4.93;;
22939;SDS011;11636;52.086;5.090;2022-12-07T18:49:30;9.30;;;4.38;;
22939;SDS011;11636;52.086;5.090;2022-12-07T18:51:57;8.75;;;4.35;;
22939;SDS011;11636;52.086;5.090;2022-12-07T18:54:25;8.15;;;4.40;;
22939;SDS011;11636;52.086;5.090;2022-12-07T18:56:59;7.30;;;4.10;;
22939;SDS011;11636;52.086;5.090;2022-12-07T18:59:26;8.50;;;4.22;;
22939;SDS011;11636;52.086;5.090;2022-12-07T19:02:18;8.18;;;4.05;;
22939;SDS011;11636;52.086;5.090;2022-12-07T19:04:45;6.97;;;3.70;;
22939;SDS011;11636;52.086;5.090;2022-12-07T19:07:12;6.40;;;3.83;;
22939;SDS011;11636;52.086;5.090;2022-12-07T19:09:46;9.38;;;4.82;;
22939;SDS011;11636;52.086;5.090;2022-12-07T19:12:21;8.02;;;4.38;;
22939;SDS011;11636;52.086;5.090;2022-12-07T19:14:54;12.70;;;4.80;;
22939;SDS011;11636;52.086;5.090;2022-12-07T19:17:21;9.70;;;5.35;;
22939;SDS011;11636;52.086;5.090;2022-12-07T19:19:49;9.32;;;5.40;;
22939;SDS011;11636;52.086;5.090;2022-12-07T19:22:22;10.50;;;6.10;;
22939;SDS011;11636;52.086;5.090;2022-12-07T19:24:56;10.52;;;5.13;;
22939;SDS011;11636;52.086;5.090;2022-12-07T19:27:25;10.27;;;5.30;;
22939;SDS011;11636;52.086;5.090;2022-12-07T19:29:59;8.60;;;4.80;;
22939;SDS011;11636;52.086;5.090;2022-12-07T19:32:27;11.32;;;4.40;;
22939;SDS011;11636;52.086;5.090;2022-12-07T19:34:55;8.07;;;3.78;;
22939;SDS011;11636;52.086;5.090;2022-12-07T19:37:35;11.43;;;6.05;;
22939;SDS011;11636;52.086;5.090;2022-12-07T19:40:04;11.52;;;7.28;;
22939;SDS011;11636;52.086;5.090;2022-12-07T19:42:38;12.88;;;6.60;;
22939;SDS011;11636;52.086;5.090;2022-12-07T19:45:05;12.18;;;5.80;;